createdAt,value
2018-08-25T00:00:12.192Z,22.79
2018-08-25T00:01:22.031Z,22.79
2018-08-25T00:02:31.852Z,22.79
2018-08-25T00:03:41.926Z,22.78
2018-08-25T00:04:51.750Z,22.75
2018-08-25T00:06:01.577Z,22.69
2018-08-25T00:07:11.662Z,22.66
2018-08-25T00:08:21.491Z,22.63
2018-08-25T00:09:31.296Z,22.71
2018-08-25T00:10:41.367Z,22.75
2018-08-25T00:11:51.443Z,22.66
2018-08-25T00:13:01.534Z,22.67
2018-08-25T00:14:11.620Z,22.64
2018-08-25T00:15:21.697Z,22.66
2018-08-25T00:16:31.787Z,22.66
2018-08-25T00:17:41.861Z,22.66
2018-08-25T00:18:51.727Z,22.66
2018-08-25T00:20:01.548Z,22.6
2018-08-25T00:21:11.353Z,22.57
2018-08-25T00:22:21.425Z,22.59
2018-08-25T00:23:31.512Z,22.57
2018-08-25T00:24:41.625Z,22.59
2018-08-25T00:25:51.698Z,22.59
2018-08-25T00:27:01.250Z,22.55
2018-08-25T00:28:11.328Z,22.57
2018-08-25T00:29:21.403Z,22.57
2018-08-25T00:30:31.486Z,22.6
2018-08-25T00:31:41.303Z,22.51
2018-08-25T00:32:51.114Z,22.54
2018-08-25T00:34:01.231Z,22.57
2018-08-25T00:35:11.041Z,22.54
2018-08-25T00:36:20.588Z,22.51
2018-08-25T00:37:30.401Z,22.57
2018-08-25T00:38:39.969Z,22.57
2018-08-25T00:39:50.051Z,22.54
2018-08-25T00:40:59.857Z,22.59
2018-08-25T00:42:09.935Z,22.48
2018-08-25T00:43:20.020Z,22.51
2018-08-25T00:44:30.091Z,22.55
2018-08-25T00:45:40.204Z,22.6
2018-08-25T00:46:50.271Z,22.55
2018-08-25T00:48:00.512Z,22.49
2018-08-25T00:49:10.610Z,22.55
2018-08-25T00:50:20.695Z,22.49
2018-08-25T00:51:30.837Z,22.52
2018-08-25T00:52:40.650Z,22.49
2018-08-25T00:53:50.726Z,22.46
2018-08-25T00:55:00.803Z,22.48
2018-08-25T00:56:10.886Z,22.46
2018-08-25T00:57:21.033Z,22.45
2018-08-25T00:58:31.213Z,22.45
2018-08-25T00:59:41.050Z,22.48
2018-08-25T01:00:51.112Z,22.36
2018-08-25T01:02:00.925Z,22.45
2018-08-25T01:03:11.057Z,22.48
2018-08-25T01:04:21.146Z,22.39
2018-08-25T01:05:31.225Z,22.42
2018-08-25T01:06:40.786Z,22.45
2018-08-25T01:07:50.864Z,22.34
2018-08-25T01:09:00.998Z,22.46
2018-08-25T01:10:10.814Z,22.41
2018-08-25T01:11:20.932Z,22.46
2018-08-25T01:12:31.002Z,22.42
2018-08-25T01:13:41.100Z,22.39
2018-08-25T01:14:51.177Z,22.46
2018-08-25T01:16:01.262Z,22.38
2018-08-25T01:17:11.340Z,22.42
2018-08-25T01:18:21.407Z,22.44
2018-08-25T01:19:31.226Z,22.49
2018-08-25T01:20:41.026Z,22.51
2018-08-25T01:21:51.098Z,22.48
2018-08-25T01:23:01.179Z,22.46
2018-08-25T01:24:11.009Z,22.52
2018-08-25T01:25:21.096Z,22.52
2018-08-25T01:26:31.198Z,22.51
2018-08-25T01:27:41.297Z,22.51
2018-08-25T01:28:51.367Z,22.46
2018-08-25T01:30:01.430Z,22.44
2018-08-25T01:31:11.501Z,22.41
2018-08-25T01:32:21.577Z,22.41
2018-08-25T01:33:31.663Z,22.45
2018-08-25T01:34:41.498Z,22.48
2018-08-25T01:35:51.573Z,22.38
2018-08-25T01:37:01.392Z,22.36
2018-08-25T01:38:11.255Z,22.34
2018-08-25T01:39:21.331Z,22.33
2018-08-25T01:40:31.399Z,22.38
2018-08-25T01:41:41.483Z,22.31
2018-08-25T01:42:51.295Z,22.31
2018-08-25T01:44:01.378Z,22.23
2018-08-25T01:45:11.192Z,22.2
2018-08-25T01:46:21.318Z,22.15
2018-08-25T01:47:31.190Z,22.09
2018-08-25T01:48:41.266Z,21.94
2018-08-25T01:49:51.349Z,22.02
2018-08-25T01:51:01.426Z,21.99
2018-08-25T01:52:11.507Z,22
2018-08-25T01:53:21.338Z,21.97
2018-08-25T01:54:31.401Z,21.9
2018-08-25T01:55:41.263Z,21.85
2018-08-25T01:56:51.100Z,21.86
2018-08-25T01:58:01.192Z,21.83
2018-08-25T01:59:11.268Z,21.89
2018-08-25T02:00:21.332Z,21.8
2018-08-25T02:01:30.954Z,21.8
2018-08-25T02:02:41.143Z,21.83
2018-08-25T02:03:51.030Z,21.85
2018-08-25T02:05:01.103Z,21.74
2018-08-25T02:06:10.932Z,21.8
2018-08-25T02:07:20.745Z,21.7
2018-08-25T02:08:30.560Z,21.71
2018-08-25T02:09:40.645Z,21.76
2018-08-25T02:10:50.444Z,21.78
2018-08-25T02:12:00.353Z,21.74
2018-08-25T02:13:10.168Z,21.73
2018-08-25T02:14:19.989Z,21.68
2018-08-25T02:15:29.820Z,21.68
2018-08-25T02:16:39.909Z,21.67
2018-08-25T02:17:49.725Z,21.68
2018-08-25T02:18:59.812Z,21.71
2018-08-25T02:20:09.880Z,21.62
2018-08-25T02:21:19.949Z,21.64
2018-08-25T02:22:30.011Z,21.56
2018-08-25T02:23:40.108Z,21.62
2018-08-25T02:24:49.963Z,21.61
2018-08-25T02:26:00.050Z,21.58
2018-08-25T02:27:09.858Z,21.49
2018-08-25T02:28:20.308Z,21.64
2018-08-25T02:29:30.632Z,21.59
2018-08-25T02:30:40.439Z,21.52
2018-08-25T02:31:50.528Z,21.51
2018-08-25T02:33:00.600Z,21.48
2018-08-25T02:34:10.676Z,21.38
2018-08-25T02:35:20.765Z,21.58
2018-08-25T02:36:30.911Z,21.51
2018-08-25T02:37:41.003Z,21.52
2018-08-25T02:38:51.503Z,21.61
2018-08-25T02:40:01.626Z,21.56
2018-08-25T02:41:11.716Z,21.58
2018-08-25T02:42:21.326Z,21.62
2018-08-25T02:43:31.403Z,21.55
2018-08-25T02:44:41.479Z,21.59
2018-08-25T02:45:51.548Z,21.58
2018-08-25T02:47:01.673Z,21.59
2018-08-25T02:48:11.498Z,21.64
2018-08-25T02:49:21.306Z,21.59
2018-08-25T02:50:31.376Z,21.55
2018-08-25T02:51:41.448Z,21.64
2018-08-25T02:52:51.322Z,21.59
2018-08-25T02:54:01.384Z,21.62
2018-08-25T02:55:11.446Z,21.58
2018-08-25T02:56:21.515Z,21.58
2018-08-25T02:57:31.624Z,21.68
2018-08-25T02:58:41.421Z,21.61
2018-08-25T02:59:51.494Z,21.55
2018-08-25T03:01:01.557Z,21.62
2018-08-25T03:02:11.632Z,21.62
2018-08-25T03:35:15.153Z,19.85
2018-08-25T03:36:25.232Z,19.82
2018-08-25T03:37:35.313Z,19.78
2018-08-25T03:38:45.379Z,19.74
2018-08-25T03:39:55.437Z,19.85
2018-08-25T03:41:05.918Z,19.95
2018-08-25T03:42:15.998Z,19.98
2018-08-25T03:43:26.068Z,20.04
2018-08-25T03:44:36.144Z,20.02
2018-08-25T03:45:45.714Z,20.22
2018-08-25T03:46:55.336Z,20.23
2018-08-25T03:48:05.631Z,20.41
2018-08-25T03:49:15.712Z,20.44
2018-08-25T03:50:25.787Z,20.58
2018-08-25T03:51:35.593Z,20.67
2018-08-25T03:52:45.712Z,20.79
2018-08-25T03:53:55.582Z,20.9
2018-08-25T03:55:05.680Z,20.96
2018-08-25T03:56:15.743Z,20.94
2018-08-25T03:57:25.816Z,21.06
2018-08-25T03:58:35.631Z,21.08
2018-08-25T03:59:45.745Z,21.13
2018-08-25T04:00:55.593Z,21.18
2018-08-25T04:02:06.185Z,21.21
2018-08-25T04:03:16.294Z,21.19
2018-08-25T04:04:26.357Z,21.19
2018-08-25T04:05:36.451Z,21.27
2018-08-25T04:06:46.532Z,21.3
2018-08-25T04:07:56.625Z,21.28
2018-08-25T04:09:06.697Z,21.34
2018-08-25T04:10:16.789Z,21.43
2018-08-25T04:11:26.861Z,21.41
2018-08-25T04:12:36.949Z,21.43
2018-08-25T04:13:47.022Z,21.4
2018-08-25T04:14:57.413Z,21.41
2018-08-25T04:16:07.872Z,21.4
2018-08-25T04:17:17.946Z,21.41
2018-08-25T04:18:28.003Z,21.43
2018-08-25T04:19:37.849Z,21.48
2018-08-25T04:20:47.682Z,21.49
2018-08-25T04:21:57.517Z,21.51
2018-08-25T04:23:07.341Z,21.49
2018-08-25T04:24:17.202Z,21.48
2018-08-25T04:25:27.269Z,21.48
2018-08-25T04:26:37.256Z,21.52
2018-08-25T04:27:47.352Z,21.49
2018-08-25T04:28:57.195Z,21.46
2018-08-25T04:30:07.286Z,21.48
2018-08-25T04:31:17.355Z,21.48
2018-08-25T04:32:27.167Z,21.53
2018-08-25T04:33:37.720Z,21.56
2018-08-25T04:34:47.831Z,21.52
2018-08-25T04:35:57.941Z,21.62
2018-08-25T04:37:08.538Z,21.59
2018-08-25T04:38:18.600Z,21.52
2018-08-25T04:39:28.150Z,21.55
2018-08-25T04:40:38.244Z,21.52
2018-08-25T04:41:48.332Z,21.62
2018-08-25T04:42:58.418Z,21.64
2018-08-25T04:44:08.603Z,21.61
2018-08-25T04:45:18.422Z,21.64
2018-08-25T04:46:28.236Z,21.56
2018-08-25T04:47:38.047Z,21.64
2018-08-25T04:48:48.134Z,21.67
2018-08-25T04:49:58.219Z,21.7
2018-08-25T04:51:08.035Z,21.62
2018-08-25T04:52:18.095Z,21.62
2018-08-25T04:53:27.906Z,21.7
2018-08-25T04:54:37.993Z,21.77
2018-08-25T04:55:48.080Z,21.7
2018-08-25T04:56:57.877Z,21.7
2018-08-25T04:58:08.111Z,21.73
2018-08-25T04:59:18.185Z,21.71
2018-08-25T05:00:28.269Z,21.68
2018-08-25T05:01:38.363Z,21.74
2018-08-25T05:02:48.236Z,21.73
2018-08-25T05:03:58.345Z,21.68
2018-08-25T05:05:08.435Z,21.73
2018-08-25T05:06:18.599Z,21.8
2018-08-25T05:07:28.678Z,21.76
2018-08-25T05:08:39.021Z,21.76
2018-08-25T05:09:49.109Z,21.78
2018-08-25T05:10:59.177Z,21.82
2018-08-25T05:12:09.271Z,21.78
2018-08-25T05:13:19.350Z,21.77
2018-08-25T05:14:29.477Z,21.82
2018-08-25T05:15:39.536Z,21.85
2018-08-25T05:16:49.356Z,21.83
2018-08-25T05:17:59.413Z,21.86
2018-08-25T05:19:09.493Z,21.92
2018-08-25T05:20:19.563Z,21.93
2018-08-25T05:21:29.361Z,21.93
2018-08-25T05:22:39.188Z,21.92
2018-08-25T05:23:49.005Z,21.89
2018-08-25T05:24:58.837Z,21.9
2018-08-25T05:26:08.947Z,21.83
2018-08-25T05:27:19.025Z,21.86
2018-08-25T05:28:29.093Z,21.89
2018-08-25T05:29:39.185Z,21.9
2018-08-25T05:30:49.257Z,21.85
2018-08-25T05:31:59.071Z,21.86
2018-08-25T05:33:09.268Z,21.85
2018-08-25T05:34:19.349Z,21.83
2018-08-25T05:35:29.427Z,21.82
2018-08-25T05:36:39.495Z,21.76
2018-08-25T05:37:49.625Z,21.74
2018-08-25T05:38:59.695Z,21.78
2018-08-25T05:40:09.808Z,21.68
2018-08-25T05:41:19.884Z,21.7
2018-08-25T05:42:29.718Z,21.68
2018-08-25T05:43:39.826Z,21.67
2018-08-25T05:44:49.903Z,21.73
2018-08-25T05:45:59.974Z,21.71
2018-08-25T05:47:10.064Z,21.8
2018-08-25T05:48:20.151Z,21.74
2018-08-25T05:49:30.224Z,21.78
2018-08-25T05:50:40.328Z,21.83
2018-08-25T05:51:50.429Z,21.93
2018-08-25T05:53:00.300Z,21.89
2018-08-25T05:54:10.362Z,21.97
2018-08-25T05:55:20.221Z,22
2018-08-25T05:56:30.308Z,22.04
2018-08-25T05:57:40.363Z,21.94
2018-08-25T05:58:50.271Z,22.08
2018-08-25T06:00:00.336Z,22.16
2018-08-25T06:01:10.413Z,22.09
2018-08-25T06:02:20.508Z,22.24
2018-08-25T06:03:30.588Z,22.18
2018-08-25T06:04:40.642Z,22.27
2018-08-25T06:05:50.460Z,22.26
2018-08-25T06:07:00.545Z,22.15
2018-08-25T06:08:10.629Z,22.26
2018-08-25T06:09:20.709Z,22.16
2018-08-25T06:10:30.800Z,22.09
2018-08-25T06:11:40.638Z,22.11
2018-08-25T06:12:50.512Z,22.05
2018-08-25T06:14:00.840Z,22
2018-08-25T06:15:10.902Z,22
2018-08-25T06:16:20.733Z,21.92
2018-08-25T06:17:30.584Z,21.97
2018-08-25T06:18:40.172Z,21.9
2018-08-25T06:19:50.277Z,21.97
2018-08-25T06:21:00.396Z,21.89
2018-08-25T06:22:10.491Z,21.93
2018-08-25T06:23:20.581Z,21.96
2018-08-25T06:24:30.700Z,21.97
2018-08-25T06:25:40.772Z,22.05
2018-08-25T06:26:50.868Z,22.14
2018-08-25T06:28:00.970Z,22.14
2018-08-25T06:29:11.056Z,22.26
2018-08-25T06:30:21.318Z,22.23
2018-08-25T06:31:31.129Z,22.38
2018-08-25T06:32:41.207Z,22.41
2018-08-25T06:33:51.276Z,22.38
2018-08-25T06:35:01.368Z,22.33
2018-08-25T06:36:11.947Z,22.26
2018-08-25T06:37:21.808Z,22.36
2018-08-25T06:38:31.967Z,22.26
2018-08-25T06:39:42.075Z,22.27
2018-08-25T06:40:52.162Z,22.16
2018-08-25T06:42:02.236Z,22.23
2018-08-25T06:43:12.326Z,22.31
2018-08-25T06:44:22.137Z,22.27
2018-08-25T06:45:31.940Z,22.29
2018-08-25T06:46:42.043Z,22.42
2018-08-25T06:47:52.124Z,22.57
2018-08-25T06:49:02.210Z,22.7
2018-08-25T06:50:12.287Z,22.86
2018-08-25T06:51:22.383Z,22.92
2018-08-25T06:52:32.463Z,23.1
2018-08-25T06:53:42.534Z,23.35
2018-08-25T06:54:52.606Z,23.53
2018-08-25T06:56:03.252Z,23.66
2018-08-25T06:57:13.334Z,23.89
2018-08-25T06:58:23.450Z,23.97
2018-08-25T06:59:33.594Z,24.18
2018-08-25T07:00:43.513Z,24.34
2018-08-25T07:01:53.585Z,24.54
2018-08-25T07:03:03.654Z,24.58
2018-08-25T07:04:13.491Z,24.7
2018-08-25T07:05:23.308Z,24.58
2018-08-25T07:06:33.098Z,24.61
2018-08-25T07:07:43.213Z,24.46
2018-08-25T07:08:53.046Z,24.48
2018-08-25T07:10:03.138Z,24.33
2018-08-25T07:11:13.228Z,24.32
2018-08-25T07:12:23.294Z,24.29
2018-08-25T07:13:33.107Z,24.19
2018-08-25T07:14:43.197Z,24.18
2018-08-25T07:15:53.266Z,24.24
2018-08-25T07:17:03.377Z,24.34
2018-08-25T07:18:13.457Z,24.67
2018-08-25T07:19:23.533Z,24.77
2018-08-25T07:20:33.342Z,24.93
2018-08-25T07:21:43.432Z,25.11
2018-08-25T07:22:53.511Z,25.29
2018-08-25T07:24:03.347Z,25.27
2018-08-25T07:25:13.421Z,25.32
2018-08-25T07:26:23.218Z,25.38
2018-08-25T07:27:33.119Z,25.39
2018-08-25T07:28:43.195Z,25.33
2018-08-25T07:29:53.333Z,25.27
2018-08-25T07:31:03.419Z,25.14
2018-08-25T07:32:13.729Z,25.14
2018-08-25T07:33:24.072Z,25.09
2018-08-25T07:34:33.955Z,24.97
2018-08-25T07:35:43.537Z,24.96
2018-08-25T07:36:53.342Z,25
2018-08-25T07:38:03.149Z,25.19
2018-08-25T07:39:13.302Z,25.3
2018-08-25T07:40:23.409Z,25.56
2018-08-25T07:41:33.293Z,25.94
2018-08-25T07:42:42.829Z,26.23
2018-08-25T07:43:52.400Z,26.69
2018-08-25T07:45:02.481Z,27.05
2018-08-25T07:46:12.719Z,27.36
2018-08-25T07:47:22.812Z,27.62
2018-08-25T07:48:32.743Z,27.71
2018-08-25T07:49:43.240Z,27.96
2018-08-25T07:50:53.396Z,27.94
2018-08-25T07:52:03.543Z,27.8
2018-08-25T07:53:13.670Z,27.84
2018-08-25T07:54:23.747Z,27.72
2018-08-25T07:55:33.833Z,27.65
2018-08-25T07:56:43.927Z,27.65
2018-08-25T07:57:54.021Z,27.75
2018-08-25T07:59:04.084Z,27.94
2018-08-25T08:00:14.415Z,28.02
2018-08-25T08:01:24.538Z,28.12
2018-08-25T08:02:34.365Z,28.17
2018-08-25T08:03:44.461Z,28.12
2018-08-25T08:04:54.477Z,28.09
2018-08-25T08:06:04.621Z,28.16
2018-08-25T08:07:14.451Z,28.33
2018-08-25T08:08:24.267Z,28.45
2018-08-25T08:09:34.386Z,28.58
2018-08-25T08:10:44.211Z,28.53
2018-08-25T08:11:54.528Z,28.57
2018-08-25T08:13:04.620Z,28.68
2018-08-25T08:14:14.732Z,28.7
2018-08-25T08:15:24.548Z,28.88
2018-08-25T08:16:34.389Z,29.08
2018-08-25T08:17:44.528Z,29.43
2018-08-25T08:18:54.623Z,29.47
2018-08-25T08:20:04.726Z,29.6
2018-08-25T08:21:14.818Z,29.65
2018-08-25T08:22:24.393Z,29.75
2018-08-25T08:23:34.217Z,29.88
2018-08-25T08:24:44.327Z,29.88
2018-08-25T08:25:54.243Z,29.98
2018-08-25T08:27:04.430Z,29.94
2018-08-25T08:28:14.262Z,29.77
2018-08-25T08:29:24.082Z,29.72
2018-08-25T08:30:33.896Z,29.67
2018-08-25T08:31:43.717Z,29.52
2018-08-25T08:32:53.960Z,29.33
2018-08-25T08:34:04.141Z,29.23
2018-08-25T08:35:14.211Z,29.1
2018-08-25T08:36:24.311Z,28.94
2018-08-25T08:37:34.392Z,28.86
2018-08-25T08:38:44.269Z,28.82
2018-08-25T08:39:54.095Z,28.68
2018-08-25T08:41:03.940Z,28.58
2018-08-25T08:42:14.062Z,28.49
2018-08-25T08:43:23.986Z,28.3
2018-08-25T08:44:34.121Z,28.16
2018-08-25T08:45:44.208Z,28.09
2018-08-25T08:46:54.296Z,28.01
2018-08-25T08:48:04.387Z,27.98
2018-08-25T08:49:14.479Z,27.99
2018-08-25T08:50:24.621Z,28.05
2018-08-25T08:51:34.666Z,27.96
2018-08-25T08:52:44.476Z,28.03
2018-08-25T08:53:54.279Z,27.94
2018-08-25T08:55:04.361Z,27.84
2018-08-25T08:56:14.512Z,27.65
2018-08-25T08:57:24.352Z,27.59
2018-08-25T08:58:34.452Z,27.55
2018-08-25T08:59:44.569Z,27.41
2018-08-25T09:00:54.641Z,27.48
2018-08-25T09:02:04.589Z,27.49
2018-08-25T09:03:14.774Z,27.36
2018-08-25T09:04:25.049Z,27.36
2018-08-25T09:13:36.698Z,26.91
2018-08-25T09:14:46.872Z,26.82
2018-08-25T09:15:56.712Z,26.76
2018-08-25T09:17:06.594Z,26.41
2018-08-25T09:18:16.637Z,26.32
2018-08-25T09:19:26.692Z,26.16
2018-08-25T09:20:37.312Z,26.03
2018-08-25T09:21:47.446Z,25.91
2018-08-25T09:22:57.572Z,25.75
2018-08-25T09:24:07.676Z,25.62
2018-08-25T09:25:17.757Z,25.49
2018-08-25T09:26:27.598Z,25.29
2018-08-25T09:27:37.881Z,25.15
2018-08-25T09:28:47.999Z,25.14
2018-08-25T09:29:58.568Z,24.96
2018-08-25T09:31:08.719Z,24.89
2018-08-25T09:32:18.837Z,24.86
2018-08-25T09:33:28.917Z,24.87
2018-08-25T09:34:38.999Z,24.92
2018-08-25T09:35:49.342Z,24.89
2018-08-25T09:37:00.779Z,24.82
2018-08-25T09:38:10.272Z,24.8
2018-08-25T09:39:20.087Z,24.82
2018-08-25T09:40:30.788Z,24.78
2018-08-25T09:41:41.037Z,24.86
2018-08-25T09:42:51.408Z,24.87
2018-08-25T09:44:01.233Z,24.96
2018-08-25T09:45:11.334Z,25.04
2018-08-25T09:46:21.161Z,25.07
2018-08-25T09:47:31.325Z,25.12
2018-08-25T09:48:41.447Z,25.15
2018-08-25T09:49:51.810Z,25.23
2018-08-25T09:51:02.005Z,25.11
2018-08-25T09:52:12.184Z,25.17
2018-08-25T09:53:22.329Z,25.14
2018-08-25T09:54:32.689Z,25.07
2018-08-25T09:55:42.292Z,24.93
2018-08-25T09:56:52.401Z,24.86
2018-08-25T09:58:02.483Z,24.89
2018-08-25T09:59:12.790Z,24.78
2018-08-25T10:00:23.114Z,24.77
2018-08-25T10:01:32.935Z,24.74
2018-08-25T10:02:43.031Z,24.74
2018-08-25T10:03:52.802Z,24.55
2018-08-25T10:05:02.922Z,24.45
2018-08-25T10:06:12.917Z,24.54
2018-08-25T10:07:23.002Z,24.58
2018-08-25T10:08:33.101Z,24.55
2018-08-25T10:09:42.938Z,24.48
2018-08-25T10:10:53.138Z,24.46
2018-08-25T10:12:03.647Z,24.42
2018-08-25T10:13:13.212Z,24.4
2018-08-25T10:14:23.326Z,24.33
2018-08-25T10:15:33.437Z,24.34
2018-08-25T10:16:43.588Z,24.33
2018-08-25T10:17:53.705Z,24.37
2018-08-25T10:19:03.860Z,24.34
2018-08-25T10:20:13.939Z,24.3
2018-08-25T10:21:24.052Z,24.36
2018-08-25T10:22:34.228Z,24.33
2018-08-25T10:23:44.968Z,24.3
2018-08-25T10:24:55.108Z,24.18
2018-08-25T10:26:05.701Z,24.19
2018-08-25T10:27:15.822Z,24.04
2018-08-25T10:28:25.970Z,24.02
2018-08-25T10:29:36.147Z,24
2018-08-25T10:30:45.985Z,24.02
2018-08-25T10:31:56.067Z,23.96
2018-08-25T10:33:06.233Z,23.96
2018-08-25T10:34:16.365Z,23.9
2018-08-25T10:35:26.518Z,23.87
2018-08-25T10:36:36.688Z,23.87
2018-08-25T10:37:46.554Z,23.84
2018-08-25T10:38:56.672Z,23.85
2018-08-25T10:40:06.755Z,23.84
2018-08-25T10:41:16.584Z,23.81
2018-08-25T10:42:26.697Z,23.78
2018-08-25T10:43:36.821Z,23.79
2018-08-25T10:44:46.919Z,23.72
2018-08-25T10:45:57.017Z,23.74
2018-08-25T10:47:06.926Z,23.82
2018-08-25T10:48:17.569Z,23.87
2018-08-25T10:49:27.669Z,23.92
2018-08-25T10:50:37.751Z,23.97
2018-08-25T10:51:47.872Z,23.94
2018-08-25T10:52:57.987Z,24.07
2018-08-25T10:54:08.706Z,24.15
2018-08-25T10:55:18.902Z,24.32
2018-08-25T10:56:28.852Z,24.51
2018-08-25T10:57:38.961Z,24.59
2018-08-25T10:58:49.055Z,24.58
2018-08-25T10:59:59.167Z,24.67
2018-08-25T11:01:09.613Z,24.7
2018-08-25T11:02:20.002Z,24.83
2018-08-25T11:03:30.061Z,24.7
2018-08-25T11:04:40.173Z,24.83
2018-08-25T11:05:50.254Z,24.89
2018-08-25T11:07:00.431Z,25.01
2018-08-25T11:08:10.518Z,25.02
2018-08-25T11:09:20.671Z,25.15
2018-08-25T11:10:30.804Z,25.17
2018-08-25T11:11:40.632Z,25.14
2018-08-25T11:12:50.711Z,25.2
2018-08-25T11:14:01.013Z,25.04
2018-08-25T11:15:11.123Z,25.07
2018-08-25T11:16:21.423Z,24.86
2018-08-25T11:17:31.390Z,24.9
2018-08-25T11:18:41.490Z,24.86
2018-08-25T11:19:51.300Z,24.87
2018-08-25T11:21:01.116Z,24.87
2018-08-25T11:22:11.275Z,24.86
2018-08-25T11:23:20.882Z,24.82
2018-08-25T11:24:31.003Z,24.83
2018-08-25T11:25:41.092Z,24.7
2018-08-25T11:26:51.209Z,24.58
2018-08-25T11:28:01.368Z,24.56
2018-08-25T11:29:11.612Z,24.51
2018-08-25T11:30:21.911Z,24.48
2018-08-25T11:31:32.040Z,24.45
2018-08-25T11:32:42.179Z,24.44
2018-08-25T11:33:52.303Z,24.44
2018-08-25T11:35:02.442Z,24.46
2018-08-25T11:36:12.549Z,24.42
2018-08-25T11:37:23.020Z,24.45
2018-08-25T11:38:33.427Z,24.51
2018-08-25T11:39:43.322Z,24.46
2018-08-25T11:40:53.357Z,24.46
2018-08-25T11:42:03.491Z,24.58
2018-08-25T11:43:13.616Z,24.55
2018-08-25T11:44:23.726Z,24.55
2018-08-25T11:45:33.804Z,24.7
2018-08-25T11:46:43.626Z,24.61
2018-08-25T11:47:53.769Z,24.69
2018-08-25T11:49:03.876Z,24.66
2018-08-25T11:50:13.992Z,24.63
2018-08-25T11:51:23.950Z,24.56
2018-08-25T11:52:33.784Z,24.64
2018-08-25T11:53:43.883Z,24.52
2018-08-25T11:54:53.961Z,24.51
2018-08-25T11:56:03.815Z,24.46
2018-08-25T11:57:13.931Z,24.45
2018-08-25T11:58:24.057Z,24.48
2018-08-25T11:59:33.880Z,24.51
2018-08-25T12:00:43.984Z,24.48
2018-08-25T12:01:54.075Z,24.46
2018-08-25T12:03:06.443Z,24.46
2018-08-25T12:04:16.567Z,24.51
2018-08-25T12:05:26.928Z,24.55
2018-08-25T12:06:37.027Z,24.74
2018-08-25T12:07:47.374Z,24.7
2018-08-25T12:08:57.250Z,24.85
2018-08-25T12:10:07.587Z,24.9
2018-08-25T12:11:17.687Z,25.12
2018-08-25T12:12:27.774Z,25.26
2018-08-25T12:13:37.890Z,25.41
2018-08-25T12:14:47.986Z,25.62
2018-08-25T12:15:58.531Z,25.74
2018-08-25T12:17:08.619Z,25.86
2018-08-25T12:18:18.697Z,25.94
2018-08-25T12:19:28.780Z,25.96
2018-08-25T12:20:38.864Z,26.03
2018-08-25T12:21:48.718Z,25.96
2018-08-25T12:22:58.799Z,25.89
2018-08-25T12:24:08.848Z,25.71
2018-08-25T12:25:19.363Z,25.6
2018-08-25T12:26:29.519Z,25.45
2018-08-25T12:27:39.635Z,25.37
2018-08-25T12:28:49.746Z,25.3
2018-08-25T12:29:59.863Z,25.23
2018-08-25T12:31:10.027Z,25.19
2018-08-25T12:32:20.165Z,25.23
2018-08-25T12:33:30.502Z,25.11
2018-08-25T12:34:40.984Z,25.14
2018-08-25T12:35:51.103Z,25.17
2018-08-25T12:37:01.275Z,25.12
2018-08-25T12:38:11.275Z,25.2
2018-08-25T12:39:21.258Z,25.27
2018-08-25T12:40:31.224Z,25.42
2018-08-25T12:41:41.331Z,25.45
2018-08-25T12:42:51.418Z,25.48
2018-08-25T12:44:01.784Z,25.45
2018-08-25T12:45:12.252Z,25.44
2018-08-25T12:46:22.688Z,25.48
2018-08-25T12:47:32.783Z,25.48
2018-08-25T12:48:42.944Z,25.44
2018-08-25T12:49:52.965Z,25.42
2018-08-25T12:51:03.070Z,25.44
2018-08-25T12:52:12.902Z,25.34
2018-08-25T12:53:22.999Z,25.38
2018-08-25T12:54:32.562Z,25.32
2018-08-25T12:55:42.661Z,25.29
2018-08-25T12:56:52.779Z,25.33
2018-08-25T12:58:02.956Z,25.26
2018-08-25T12:59:13.429Z,25.3
2018-08-25T13:00:23.829Z,25.27
2018-08-25T13:01:34.093Z,25.22
2018-08-25T13:02:44.431Z,25.12
2018-08-25T13:03:54.576Z,25.19
2018-08-25T13:05:04.937Z,25.05
2018-08-25T13:06:15.153Z,25.01
2018-08-25T13:07:25.445Z,25.02
2018-08-25T13:08:35.781Z,25.05
2018-08-25T13:09:45.356Z,25.02
2018-08-25T13:10:55.456Z,24.97
2018-08-25T13:12:05.946Z,24.93
2018-08-25T13:13:16.217Z,24.9
2018-08-25T13:14:26.079Z,24.78
2018-08-25T13:15:36.194Z,24.75
2018-08-25T13:16:46.324Z,24.69
2018-08-25T13:17:56.454Z,24.63
2018-08-25T13:19:06.656Z,24.63
2018-08-25T13:20:16.762Z,24.63
2018-08-25T13:21:26.599Z,24.67
2018-08-25T13:22:36.409Z,24.56
2018-08-25T13:23:46.061Z,24.55
2018-08-25T13:24:56.270Z,24.39
2018-08-25T13:26:06.653Z,24.36
2018-08-25T13:27:16.866Z,24.32
2018-08-25T13:28:26.966Z,24.29
2018-08-25T13:29:36.833Z,24.32
2018-08-25T13:30:47.017Z,24.29
2018-08-25T13:31:57.450Z,24.24
2018-08-25T13:33:07.542Z,24.19
2018-08-25T13:34:17.364Z,24.09
2018-08-25T13:35:27.505Z,24.03
2018-08-25T13:36:37.605Z,24.03
2018-08-25T13:37:47.710Z,24.02
2018-08-25T13:38:57.801Z,24.11
2018-08-25T13:40:08.424Z,24.03
2018-08-25T13:41:18.259Z,24.09
2018-08-25T13:42:28.369Z,24.07
2018-08-25T13:43:38.635Z,24.11
2018-08-25T13:44:48.572Z,24
2018-08-25T13:45:58.417Z,23.99
2018-08-25T13:47:08.853Z,23.96
2018-08-25T13:48:18.983Z,23.87
2018-08-25T13:49:29.096Z,23.82
2018-08-25T13:50:39.238Z,23.7
2018-08-25T13:51:49.331Z,23.6
2018-08-25T13:52:59.436Z,23.53
2018-08-25T13:54:09.575Z,23.4
2018-08-25T13:55:19.422Z,23.24
2018-08-25T13:56:29.237Z,23.21
2018-08-25T13:57:39.106Z,23.19
2018-08-25T13:58:49.002Z,23.24
2018-08-25T13:59:59.126Z,23.24
2018-08-25T14:01:09.253Z,23.25
2018-08-25T14:02:19.129Z,23.35
2018-08-25T14:03:29.250Z,23.45
2018-08-25T14:04:39.456Z,23.52
2018-08-25T14:05:49.282Z,23.59
2018-08-25T14:06:59.434Z,23.6
2018-08-25T14:08:09.809Z,23.66
2018-08-25T14:09:20.338Z,23.7
2018-08-25T14:10:30.501Z,23.67
2018-08-25T14:11:40.616Z,23.63
2018-08-25T14:12:50.698Z,23.67
2018-08-25T14:14:00.793Z,23.78
2018-08-25T14:15:10.917Z,23.81
2018-08-25T14:16:21.336Z,23.81
2018-08-25T14:17:31.711Z,23.71
2018-08-25T14:18:41.548Z,23.74
2018-08-25T14:19:51.636Z,23.7
2018-08-25T14:21:02.413Z,23.66
2018-08-25T14:22:12.703Z,23.57
2018-08-25T14:23:22.795Z,23.57
2018-08-25T14:24:32.895Z,23.56
2018-08-25T14:25:42.995Z,23.47
2018-08-25T14:26:53.093Z,23.41
2018-08-25T14:28:03.174Z,23.21
2018-08-25T14:29:12.996Z,23.18
2018-08-25T14:30:23.101Z,23.14
2018-08-25T14:31:33.519Z,23.1
2018-08-25T14:32:43.642Z,23.06
2018-08-25T14:33:53.735Z,23.04
2018-08-25T14:35:03.588Z,23.03
2018-08-25T14:36:13.871Z,23.04
2018-08-25T14:37:23.784Z,23.06
2018-08-25T14:38:33.902Z,23.09
2018-08-25T14:39:44.018Z,23.06
2018-08-25T14:40:54.136Z,23.14
2018-08-25T14:42:03.988Z,23.19
2018-08-25T14:43:13.607Z,23.41
2018-08-25T14:44:23.430Z,23.5
2018-08-25T14:45:33.557Z,23.66
2018-08-25T14:46:43.649Z,23.7
2018-08-25T14:47:53.733Z,23.72
2018-08-25T14:49:03.833Z,23.81
2018-08-25T14:50:14.033Z,23.82
2018-08-25T14:51:23.924Z,23.85
2018-08-25T14:52:34.317Z,23.9
2018-08-25T14:53:43.937Z,23.97
2018-08-25T14:54:53.784Z,23.97
2018-08-25T14:56:03.898Z,23.96
2018-08-25T14:57:13.793Z,23.94
2018-08-25T14:58:23.912Z,23.96
2018-08-25T14:59:34.010Z,24.02
2018-08-25T15:00:44.244Z,24.03
2018-08-25T15:01:54.238Z,24.21
2018-08-25T15:03:04.343Z,24.33
2018-08-25T15:04:14.164Z,24.51
2018-08-25T15:05:24.277Z,24.58
2018-08-25T15:06:34.119Z,24.67
2018-08-25T15:07:44.187Z,24.75
2018-08-25T15:08:54.313Z,24.92
2018-08-25T15:10:04.414Z,24.87
2018-08-25T15:11:14.525Z,25.02
2018-08-25T15:12:24.382Z,25.29
2018-08-25T15:13:34.584Z,25.27
2018-08-25T15:14:44.675Z,25.41
2018-08-25T15:15:55.232Z,25.44
2018-08-25T15:17:05.073Z,25.34
2018-08-25T15:18:15.250Z,25.33
2018-08-25T15:19:25.083Z,25.26
2018-08-25T15:20:35.196Z,25.23
2018-08-25T15:21:45.371Z,25.17
2018-08-25T15:22:55.442Z,25.01
2018-08-25T15:24:06.163Z,25.04
2018-08-25T15:25:16.283Z,24.82
2018-08-25T15:26:26.168Z,24.67
2018-08-25T15:27:36.268Z,24.67
2018-08-25T15:28:46.408Z,24.52
2018-08-25T15:29:56.532Z,24.46
2018-08-25T15:31:06.975Z,24.36
2018-08-25T15:32:16.706Z,24.32
2018-08-25T15:33:26.784Z,24.22
2018-08-25T15:34:36.909Z,24.22
2018-08-25T15:35:47.012Z,24.21
2018-08-25T15:36:57.207Z,24.19
2018-08-25T15:38:07.318Z,24.18
2018-08-25T15:39:17.421Z,24.18
2018-08-25T15:40:27.812Z,24.15
2018-08-25T15:41:37.905Z,24.08
2018-08-25T15:42:47.999Z,24.07
2018-08-25T15:43:57.884Z,24.08
2018-08-25T15:45:07.620Z,24.07